Time;durP1;ratioP1;P1;durP2;ratioP2;P2;SDS_P1;SDS_P2;PMS_P1;PMS_P2;Temp;Humidity;BMP_temperature;BMP_pressure;BME280_temperature;BME280_humidity;BME280_pressure;Samples;Min_cycle;Max_cycle;Signal;HPM_P1;HPM_P2
2022/06/27 00:00:27;;;;;;;2.72;2.10;;;;;;;25.80;46.44;100895.95;1808925;79;21091;-81
2022/06/27 00:02:53;;;;;;;3.12;2.30;;;;;;;25.80;46.47;100896.73;1809137;79;21036;-80
2022/06/27 00:05:20;;;;;;;2.40;2.10;;;;;;;25.80;46.47;100896.73;1809153;79;21597;-80
2022/06/27 00:07:46;;;;;;;3.62;2.10;;;;;;;25.80;46.47;100901.52;1808724;78;20941;-80
2022/06/27 00:10:12;;;;;;;2.00;1.80;;;;;;;25.80;46.49;100903.70;1807445;78;21246;-79
2022/06/27 00:12:39;;;;;;;4.05;1.92;;;;;;;25.80;46.50;100902.91;1798038;79;21075;-79
2022/06/27 00:15:07;;;;;;;2.52;2.10;;;;;;;25.80;46.53;100904.31;1797705;79;20977;-80
2022/06/27 00:17:33;;;;;;;2.87;2.17;;;;;;;25.80;46.52;100902.91;1797865;79;21120;-79
2022/06/27 00:20:00;;;;;;;2.42;2.12;;;;;;;25.80;46.50;100898.73;1797818;79;21499;-80
2022/06/27 00:22:27;;;;;;;2.27;2.08;;;;;;;25.81;46.49;100901.73;1797640;79;21009;-79
2022/06/27 00:24:53;;;;;;;2.40;2.10;;;;;;;25.79;46.49;100902.10;1775546;79;21041;-80
2022/06/27 00:27:20;;;;;;;2.85;2.00;;;;;;;25.79;46.49;100896.52;1798261;79;21005;-80
2022/06/27 00:29:46;;;;;;;2.10;1.90;;;;;;;25.80;46.50;100888.98;1797567;79;21463;-80
2022/06/27 00:32:12;;;;;;;2.17;1.90;;;;;;;25.79;46.53;100895.71;1797860;79;21388;-80
2022/06/27 00:34:39;;;;;;;2.27;1.90;;;;;;;25.81;46.53;100896.16;1775567;79;21028;-80
2022/06/27 00:37:05;;;;;;;2.67;1.80;;;;;;;25.80;46.55;100893.16;1797492;79;21045;-80
2022/06/27 00:39:32;;;;;;;2.45;1.75;;;;;;;25.79;46.56;100892.34;1798065;79;20963;-80
2022/06/27 00:42:04;;;;;;;2.22;1.82;;;;;;;25.79;46.58;100895.13;1797996;79;21670;-80
2022/06/27 00:44:37;;;;;;;2.45;1.90;;;;;;;25.79;46.58;100890.95;1797666;79;21024;-79
2022/06/27 00:47:05;;;;;;;2.02;1.65;;;;;;;25.79;46.60;100884.56;1798213;79;21135;-80
2022/06/27 00:49:32;;;;;;;2.40;1.85;;;;;;;25.79;46.57;100878.98;1797876;79;21514;-80
2022/06/27 00:51:58;;;;;;;2.47;1.90;;;;;;;25.79;46.60;100881.77;1797982;79;21525;-79
2022/06/27 00:54:25;;;;;;;2.75;2.10;;;;;;;25.78;46.57;100884.33;1798142;79;21115;-79
2022/06/27 00:56:58;;;;;;;1.87;1.67;;;;;;;25.78;46.61;100886.53;1798259;79;21490;-79
2022/06/27 00:59:24;;;;;;;2.08;1.80;;;;;;;25.78;46.58;100881.53;1797635;79;21033;-80
2022/06/27 01:01:51;;;;;;;2.22;1.70;;;;;;;25.78;46.60;100882.36;1797881;79;21100;-79
2022/06/27 01:04:17;;;;;;;2.30;1.90;;;;;;;25.79;46.59;100888.74;1798244;79;21040;-79
2022/06/27 01:06:43;;;;;;;2.85;2.00;;;;;;;25.78;46.59;100887.92;1797475;79;21662;-79
2022/06/27 01:09:10;;;;;;;2.22;1.65;;;;;;;25.78;46.60;100884.33;1797786;79;21471;-80
2022/06/27 01:11:36;;;;;;;2.58;1.85;;;;;;;25.78;46.60;100888.51;1802893;79;20993;-80
2022/06/27 01:14:03;;;;;;;2.30;1.72;;;;;;;25.78;46.60;100882.93;1806177;79;20945;-80
2022/06/27 01:16:29;;;;;;;2.58;1.92;;;;;;;25.78;46.60;100880.95;1806557;79;20987;-80
2022/06/27 01:18:56;;;;;;;2.58;1.90;;;;;;;25.78;46.60;100879.56;1806592;78;21118;-79
2022/06/27 01:21:24;;;;;;;2.92;1.95;;;;;;;25.78;46.61;100881.53;1806291;79;21016;-79
2022/06/27 01:23:51;;;;;;;2.00;1.70;;;;;;;25.77;46.60;100881.30;1806585;78;21061;-80
2022/06/27 01:26:20;;;;;;;2.05;1.70;;;;;;;25.77;46.62;100881.30;1806835;79;21044;-79
2022/06/27 01:28:46;;;;;;;2.58;1.90;;;;;;;25.78;46.63;100878.17;1806471;79;21075;-79
2022/06/27 01:31:13;;;;;;;2.65;1.87;;;;;;;25.77;46.63;100880.72;1806689;79;21107;-79
2022/06/27 01:33:39;;;;;;;2.45;1.95;;;;;;;25.77;46.65;100879.33;1806769;78;21562;-81
2022/06/27 01:38:54;;;;;;;3.08;2.02;;;;;;;25.78;46.67;100874.57;1806519;79;21562;-79
2022/06/27 01:41:20;;;;;;;2.95;1.65;;;;;;;25.77;46.67;100872.94;1806586;78;21012;-81
2022/06/27 01:43:48;;;;;;;3.12;1.92;;;;;;;25.77;46.67;100875.73;1806837;79;21095;-79
2022/06/27 01:46:15;;;;;;;2.22;1.98;;;;;;;25.76;46.67;100872.70;1806720;79;21100;-80
2022/06/27 01:48:42;;;;;;;2.10;1.80;;;;;;;25.76;46.68;100880.48;1806526;79;21570;-79
2022/06/27 01:51:09;;;;;;;2.37;2.08;;;;;;;25.75;46.69;100864.95;1806895;79;20985;-79
2022/06/27 01:53:38;;;;;;;2.62;2.02;;;;;;;25.77;46.71;100871.55;1806825;78;21100;-79
2022/06/27 01:56:05;;;;;;;2.92;2.10;;;;;;;25.75;46.71;100866.92;1806450;79;21574;-80
2022/06/27 01:58:32;;;;;;;3.17;1.95;;;;;;;25.76;46.70;100879.67;1806721;79;21036;-79
2022/06/27 02:00:58;;;;;;;2.98;2.00;;;;;;;25.76;46.71;100874.09;1806817;79;21016;-79
2022/06/27 02:03:25;;;;;;;2.30;1.60;;;;;;;25.75;46.71;100876.09;1806612;79;20985;-80
2022/06/27 02:05:53;;;;;;;1.75;1.65;;;;;;;25.75;46.71;100876.09;1806826;78;21032;-80
2022/06/27 02:08:21;;;;;;;3.22;1.70;;;;;;;25.76;46.72;100886.64;1806394;79;21558;-79
2022/06/27 02:10:48;;;;;;;2.20;1.90;;;;;;;25.76;46.72;100888.03;1806027;78;21017;-80
2022/06/27 02:13:15;;;;;;;2.22;1.67;;;;;;;25.76;46.74;100881.88;1807020;79;21519;-79
2022/06/27 02:16:06;;;;;;;2.08;1.72;;;;;;;25.75;46.74;100888.64;1806713;79;21143;-79
2022/06/27 02:18:33;;;;;;;2.22;1.77;;;;;;;25.76;46.75;100882.45;1744422;81;21073;-80
2022/06/27 02:21:00;;;;;;;2.37;1.77;;;;;;;25.74;46.76;100875.86;1789919;79;21495;-80
2022/06/27 02:23:26;;;;;;;2.83;1.95;;;;;;;25.73;46.78;100879.80;1806792;79;21096;-80
2022/06/27 02:25:53;;;;;;;3.62;2.10;;;;;;;25.74;46.78;100880.04;1806679;79;20989;-80
2022/06/27 02:28:19;;;;;;;2.75;1.85;;;;;;;25.75;46.79;100884.45;1807064;79;21052;-79
2022/06/27 02:30:46;;;;;;;2.77;1.80;;;;;;;25.74;46.80;100883.41;1806845;79;21048;-80
2022/06/27 02:33:12;;;;;;;1.85;1.65;;;;;;;25.74;46.82;100887.58;1806735;78;21932;-81
2022/06/27 02:35:39;;;;;;;2.02;1.80;;;;;;;25.73;46.84;100888.73;1806813;79;21024;-80
2022/06/27 02:38:08;;;;;;;2.47;2.00;;;;;;;25.73;46.84;100885.95;1806890;79;21459;-79
2022/06/27 02:40:43;;;;;;;2.27;1.80;;;;;;;25.73;46.84;100890.95;1806551;79;21029;-79
2022/06/27 02:43:15;;;;;;;2.50;1.82;;;;;;;25.73;46.85;100892.34;1806978;79;20945;-79
2022/06/27 02:45:42;;;;;;;2.22;1.82;;;;;;;25.72;46.85;100894.89;1806688;78;22145;-79
2022/06/27 02:48:08;;;;;;;2.85;2.00;;;;;;;25.73;46.86;100899.89;1777628;79;21641;-79
2022/06/27 02:50:35;;;;;;;2.72;1.80;;;;;;;25.72;46.86;100906.03;1806696;79;21013;-80
2022/06/27 02:53:09;;;;;;;1.98;1.72;;;;;;;25.72;46.87;100903.83;1806537;79;21009;-79
2022/06/27 02:55:39;;;;;;;2.30;1.82;;;;;;;25.72;46.87;100908.01;1806745;78;21123;-79
2022/06/27 02:58:19;;;;;;;2.75;1.80;;;;;;;25.72;46.90;100906.03;1806714;79;21151;-79
2022/06/27 03:00:45;;;;;;;3.30;2.10;;;;;;;25.72;46.90;100910.80;1806801;78;21017;-80
2022/06/27 03:03:12;;;;;;;3.80;1.72;;;;;;;25.71;46.88;100906.41;1806550;79;21012;-80
2022/06/27 03:05:59;;;;;;;2.50;1.85;;;;;;;25.72;46.89;100908.01;1806745;79;21773;-79
2022/06/27 03:08:31;;;;;;;2.60;1.87;;;;;;;25.72;46.90;100908.01;1806679;78;21068;-79
2022/06/27 03:10:57;;;;;;;2.15;1.80;;;;;;;25.71;46.87;100909.19;1806688;79;21896;-79
2022/06/27 03:13:24;;;;;;;2.15;1.57;;;;;;;25.71;46.87;100909.19;1806612;79;20973;-79
2022/06/27 03:15:50;;;;;;;2.52;1.90;;;;;;;25.71;46.90;100912.80;1806549;79;21088;-80
2022/06/27 03:18:17;;;;;;;2.00;1.80;;;;;;;25.72;46.91;100923.34;1806816;79;21099;-79
2022/06/27 03:20:43;;;;;;;3.80;1.90;;;;;;;25.71;46.91;100919.77;1806952;79;21005;-79
2022/06/27 03:23:10;;;;;;;2.77;1.95;;;;;;;25.72;46.90;100926.13;1806547;78;21077;-79
2022/06/27 03:25:42;;;;;;;2.10;1.60;;;;;;;25.72;46.90;100923.34;1806824;78;21462;-79
2022/06/27 03:28:09;;;;;;;2.90;1.95;;;;;;;25.72;46.91;100930.30;1806751;79;21111;-79
2022/06/27 03:30:35;;;;;;;2.05;1.80;;;;;;;25.72;46.88;100926.94;1806546;79;21375;-79
2022/06/27 03:33:02;;;;;;;2.87;2.08;;;;;;;25.72;46.90;100926.13;1807027;79;21566;-79
2022/06/27 03:35:28;;;;;;;2.12;1.80;;;;;;;25.72;46.90;100925.55;1806875;79;21111;-80
2022/06/27 03:37:55;;;;;;;1.70;1.55;;;;;;;25.71;46.90;100922.55;1806571;79;20986;-80
2022/06/27 03:40:27;;;;;;;2.12;1.77;;;;;;;25.72;46.89;100928.91;1806578;79;21428;-80
2022/06/27 03:42:54;;;;;;;1.60;1.50;;;;;;;25.72;46.88;100929.72;1806903;78;21021;-81
2022/06/27 03:45:20;;;;;;;2.17;1.72;;;;;;;25.71;46.90;100933.70;1806370;79;21044;-80
2022/06/27 03:47:56;;;;;;;2.67;1.67;;;;;;;25.73;46.90;100937.50;1806779;79;21986;-81
2022/06/27 03:50:22;;;;;;;2.60;1.98;;;;;;;25.72;46.88;100938.09;1806314;79;21510;-80
2022/06/27 03:52:55;;;;;;;2.52;1.75;;;;;;;25.73;46.89;100933.33;1806686;79;21045;-80
2022/06/27 03:55:22;;;;;;;2.45;1.70;;;;;;;25.72;46.89;100945.63;1806700;79;21447;-80
2022/06/27 03:57:54;;;;;;;2.00;1.80;;;;;;;25.72;46.86;100948.41;1806473;79;21115;-80
2022/06/27 04:00:23;;;;;;;2.65;1.70;;;;;;;25.73;46.89;100947.27;1806672;78;21169;-80
2022/06/27 04:02:49;;;;;;;2.65;1.98;;;;;;;25.72;46.89;100953.41;1806433;79;20933;-81
2022/06/27 04:05:16;;;;;;;2.50;1.80;;;;;;;25.72;46.89;100960.38;1806417;79;20980;-81
2022/06/27 04:07:42;;;;;;;3.65;2.10;;;;;;;25.72;46.91;100956.20;1806642;78;21103;-80
2022/06/27 04:10:10;;;;;;;2.25;1.67;;;;;;;25.72;46.90;100958.98;1806769;79;21310;-80
2022/06/27 04:12:36;;;;;;;2.72;1.90;;;;;;;25.73;46.92;100962.59;1806427;78;21157;-80
2022/06/27 04:15:04;;;;;;;1.95;1.60;;;;;;;25.72;46.89;100960.38;1806298;78;20965;-80
2022/06/27 04:17:31;;;;;;;2.02;1.70;;;;;;;25.71;46.91;100954.59;1806400;78;21037;-79
2022/06/27 04:19:57;;;;;;;2.20;1.80;;;;;;;25.73;46.92;100958.41;1806171;79;21036;-81
2022/06/27 04:22:24;;;;;;;2.05;1.65;;;;;;;25.72;46.92;100954.80;1806774;79;21486;-80
2022/06/27 04:24:50;;;;;;;2.17;1.70;;;;;;;25.73;46.92;100956.44;1806569;79;21103;-80
2022/06/27 04:27:19;;;;;;;2.70;1.62;;;;;;;25.73;46.92;100955.05;1806410;79;21064;-80
2022/06/27 04:29:45;;;;;;;2.67;2.00;;;;;;;25.72;46.92;100955.38;1806870;79;21084;-80
2022/06/27 04:32:18;;;;;;;2.30;1.60;;;;;;;25.73;46.93;100951.44;1800655;79;21041;-80
2022/06/27 04:34:44;;;;;;;3.58;1.90;;;;;;;25.73;46.92;100951.44;1791987;78;21131;-79
2022/06/27 04:37:11;;;;;;;2.27;1.90;;;;;;;25.73;46.95;100957.02;1788994;80;21083;-80
2022/06/27 04:39:38;;;;;;;6.50;2.30;;;;;;;25.70;46.99;100958.54;1788539;80;21532;-79
2022/06/27 04:42:06;;;;;;;3.77;2.17;;;;;;;25.69;47.02;100960.27;1788535;80;21052;-80
2022/06/27 04:44:34;;;;;;;4.22;2.02;;;;;;;25.66;47.07;100959.00;1789076;79;21489;-80
2022/06/27 04:47:02;;;;;;;5.42;2.10;;;;;;;25.65;47.08;100960.16;1808584;77;21126;-80
2022/06/27 04:49:29;;;;;;;5.28;2.30;;;;;;;25.63;47.09;100960.29;1822916;78;22116;-81
2022/06/27 04:51:58;;;;;;;3.58;1.90;;;;;;;25.60;47.13;100960.96;1823175;77;21021;-80
2022/06/27 04:54:24;;;;;;;5.28;2.70;;;;;;;25.58;47.17;100964.69;1823300;78;21516;-79
2022/06/27 04:56:52;;;;;;;2.83;1.87;;;;;;;25.57;47.13;100965.84;1810256;78;21557;-79
2022/06/27 04:59:20;;;;;;;5.90;2.45;;;;;;;25.51;47.21;100968.00;1787038;80;21063;-80
2022/06/27 05:01:55;;;;;;;6.35;2.25;;;;;;;25.45;47.20;100964.66;1804908;79;21107;-80
2022/06/27 05:04:22;;;;;;;3.83;2.15;;;;;;;25.43;47.23;100966.96;1800808;78;20926;-80
2022/06/27 05:06:48;;;;;;;6.45;2.40;;;;;;;25.40;47.24;100971.02;1804858;79;21036;-80
2022/06/27 05:09:15;;;;;;;6.60;2.90;;;;;;;25.39;47.23;100975.78;1806707;78;21502;-79
2022/06/27 05:11:41;;;;;;;3.20;2.55;;;;;;;25.38;47.19;100972.75;1806346;79;21553;-79
2022/06/27 05:14:08;;;;;;;5.67;2.65;;;;;;;25.36;47.20;100974.27;1806557;79;21510;-79
2022/06/27 05:16:37;;;;;;;5.75;2.45;;;;;;;25.34;47.25;100969.61;1789165;78;21096;-80
2022/06/27 05:19:03;;;;;;;4.42;2.83;;;;;;;25.35;47.25;100973.45;1771045;78;20921;-80
2022/06/27 05:21:29;;;;;;;6.85;2.37;;;;;;;25.34;47.27;100971.81;1773735;79;21040;-80
2022/06/27 05:23:56;;;;;;;3.95;2.50;;;;;;;25.33;47.28;100962.44;1754947;80;21083;-80
2022/06/27 05:26:22;;;;;;;5.87;2.27;;;;;;;25.31;47.28;100969.73;1742634;80;21756;-81
2022/06/27 05:28:49;;;;;;;3.52;2.22;;;;;;;25.29;47.35;100967.86;1767051;79;21013;-80
2022/06/27 05:31:15;;;;;;;4.28;2.02;;;;;;;25.29;47.38;100967.86;1767965;80;21134;-79
2022/06/27 05:33:42;;;;;;;3.27;2.12;;;;;;;25.30;47.39;100975.06;1760531;79;21013;-79
2022/06/27 05:36:10;;;;;;;4.62;2.40;;;;;;;25.31;47.39;100983.66;1768131;81;21100;-79
2022/06/27 05:38:39;;;;;;;5.90;2.30;;;;;;;25.29;47.42;100974.82;1772201;79;22673;-80
2022/06/27 05:41:06;;;;;;;3.95;2.30;;;;;;;25.28;47.47;100976.58;1759640;80;20983;-79
2022/06/27 05:43:35;;;;;;;8.10;2.65;;;;;;;25.27;47.50;100975.77;1758856;79;21597;-79
2022/06/27 05:46:02;;;;;;;5.20;2.42;;;;;;;25.27;47.52;100974.95;1735892;80;21031;-79
2022/06/27 05:48:29;;;;;;;7.53;2.35;;;;;;;25.28;47.57;100991.31;1759460;80;21529;-80
2022/06/27 05:50:57;;;;;;;5.35;2.50;;;;;;;25.25;47.62;100989.20;1759925;79;21118;-79
2022/06/27 05:53:24;;;;;;;4.60;2.67;;;;;;;25.25;47.69;100988.41;1746930;79;21578;-81
2022/06/27 05:55:52;;;;;;;5.58;2.27;;;;;;;25.23;47.73;100985.97;1760735;79;21640;-81
2022/06/27 05:58:19;;;;;;;5.47;2.37;;;;;;;25.23;47.80;100990.14;1757044;79;21033;-81
2022/06/27 06:00:45;;;;;;;3.52;2.70;;;;;;;25.24;47.87;100988.17;1754988;79;21066;-80
2022/06/27 06:03:12;;;;;;;5.30;2.75;;;;;;;25.25;47.92;100990.59;1745923;82;21538;-79
2022/06/27 06:05:40;;;;;;;6.53;2.52;;;;;;;25.26;47.94;100995.02;1756477;80;21099;-79
2022/06/27 06:08:06;;;;;;;4.08;2.40;;;;;;;25.28;47.97;100987.72;1754064;80;21448;-83
2022/06/27 06:10:36;;;;;;;3.27;2.17;;;;;;;25.28;48.03;100991.31;1760995;80;21086;-79
2022/06/27 06:13:03;;;;;;;5.95;2.20;;;;;;;25.29;48.06;100994.31;1773090;78;21025;-80
2022/06/27 06:15:31;;;;;;;6.47;2.17;;;;;;;25.29;48.13;100995.70;1783423;78;21206;-78
2022/06/27 06:18:03;;;;;;;4.28;2.25;;;;;;;25.29;48.14;100992.92;1773021;79;21443;-80
2022/06/27 06:20:32;;;;;;;4.65;2.17;;;;;;;25.31;48.13;100998.97;1768585;79;21096;-79
2022/06/27 06:22:59;;;;;;;4.00;2.12;;;;;;;25.32;48.12;100996.43;1756155;79;21101;-80
2022/06/27 06:25:27;;;;;;;5.28;2.10;;;;;;;25.33;48.12;100990.28;1771916;79;21152;-80
2022/06/27 06:27:56;;;;;;;3.12;2.10;;;;;;;25.34;48.07;100994.09;1780494;79;21713;-79
2022/06/27 06:30:22;;;;;;;6.60;2.92;;;;;;;25.35;48.13;100997.13;1767881;78;21060;-80
2022/06/27 06:32:49;;;;;;;3.37;2.27;;;;;;;25.34;48.18;100987.13;1795807;79;21546;-79
2022/06/27 06:35:16;;;;;;;2.98;2.08;;;;;;;25.36;48.17;100991.80;1795356;79;21025;-81
2022/06/27 06:37:44;;;;;;;2.67;2.17;;;;;;;25.35;48.18;100991.55;1792157;78;21105;-81
2022/06/27 06:40:15;;;;;;;6.00;2.20;;;;;;;25.38;48.17;100988.64;1788788;79;21486;-79
2022/06/27 06:42:40;;;;;;;2.80;2.05;;;;;;;25.40;48.22;100998.88;1735939;82;21101;-83
2022/06/27 06:45:07;;;;;;;5.03;2.02;;;;;;;25.40;48.21;100996.09;1733650;81;21040;-78
2022/06/27 06:47:34;;;;;;;4.65;2.25;;;;;;;25.41;48.24;100988.80;1726659;80;21081;-80
2022/06/27 06:50:00;;;;;;;3.35;2.15;;;;;;;25.43;48.20;100990.64;1751886;79;21064;-80
2022/06/27 06:52:30;;;;;;;3.50;1.72;;;;;;;25.44;48.16;100996.45;1750860;78;21971;-80
2022/06/27 06:54:55;;;;;;;6.75;2.20;;;;;;;25.47;48.14;100994.36;1791229;79;21037;-81
2022/06/27 06:57:22;;;;;;;4.70;2.35;;;;;;;25.49;48.13;100998.20;1791705;78;21721;-78
2022/06/27 06:59:54;;;;;;;4.17;2.25;;;;;;;25.49;48.15;100992.63;1789460;78;21186;-82
2022/06/27 07:02:21;;;;;;;3.87;1.95;;;;;;;25.51;48.13;101000.05;1789981;78;21064;-79
2022/06/27 07:04:47;;;;;;;2.90;2.10;;;;;;;25.52;48.10;100993.89;1784306;78;21515;-81
2022/06/27 07:07:14;;;;;;;4.15;1.87;;;;;;;25.51;48.10;100994.47;1784349;78;21084;-79
2022/06/27 07:09:40;;;;;;;2.90;2.25;;;;;;;25.53;48.06;101004.73;1778202;78;21496;-79
2022/06/27 07:12:08;;;;;;;3.72;2.10;;;;;;;25.55;48.05;101000.19;1791463;78;21037;-79
2022/06/27 07:14:35;;;;;;;2.72;2.02;;;;;;;25.56;48.09;100999.85;1767347;79;21020;-79
2022/06/27 07:17:01;;;;;;;4.05;2.10;;;;;;;25.58;48.11;100994.77;1786301;78;21070;-80
2022/06/27 07:19:29;;;;;;;2.62;2.05;;;;;;;25.60;48.14;101004.97;1795257;78;21017;-79
2022/06/27 07:21:55;;;;;;;5.95;2.05;;;;;;;25.62;48.20;101003.23;1794215;78;21116;-79
2022/06/27 07:24:22;;;;;;;6.95;2.60;;;;;;;25.64;48.18;100996.72;1786059;79;21241;-79
2022/06/27 07:26:49;;;;;;;5.28;2.08;;;;;;;25.64;48.12;100996.14;1794789;78;21498;-79
2022/06/27 07:29:16;;;;;;;3.20;2.33;;;;;;;25.64;48.04;101000.32;1780077;78;21910;-79
2022/06/27 07:31:43;;;;;;;3.20;2.10;;;;;;;25.65;48.12;100997.78;1777623;78;21540;-79
2022/06/27 07:34:11;;;;;;;4.85;2.50;;;;;;;25.66;48.06;100997.20;1790599;79;21029;-80
2022/06/27 07:36:38;;;;;;;3.45;2.12;;;;;;;25.66;48.05;101003.59;1781636;78;21037;-79
2022/06/27 07:39:11;;;;;;;4.72;2.20;;;;;;;25.67;47.97;100990.47;1782737;78;21095;-79
2022/06/27 07:41:37;;;;;;;2.95;2.02;;;;;;;25.68;47.92;100992.89;1793653;78;21067;-79
2022/06/27 07:44:04;;;;;;;4.08;2.40;;;;;;;25.70;47.90;100993.95;1789547;78;21087;-82
2022/06/27 07:46:34;;;;;;;6.30;2.25;;;;;;;25.70;47.92;100985.59;1788886;78;21036;-76
2022/06/27 07:48:58;;;;;;;3.85;2.40;;;;;;;25.71;47.91;100992.80;1782662;78;21012;-78
2022/06/27 07:51:25;;;;;;;3.30;2.25;;;;;;;25.72;47.89;100997.19;1796486;78;21057;-79
2022/06/27 07:53:51;;;;;;;4.17;2.62;;;;;;;25.74;47.84;100993.48;1778231;78;22478;-80
2022/06/27 07:56:20;;;;;;;3.90;2.02;;;;;;;25.74;47.82;100981.76;1767262;79;21095;-79
2022/06/27 07:58:48;;;;;;;4.47;2.33;;;;;;;25.76;47.79;100984.18;1795519;78;21063;-79
2022/06/27 08:01:15;;;;;;;5.17;2.40;;;;;;;25.77;47.73;100995.56;1778779;79;21088;-78
2022/06/27 08:03:44;;;;;;;6.30;2.50;;;;;;;25.78;47.61;100988.84;1794921;79;21013;-81
2022/06/27 08:06:17;;;;;;;4.05;1.95;;;;;;;25.79;47.51;100980.72;1772919;79;21511;-78
2022/06/27 08:08:45;;;;;;;2.98;2.40;;;;;;;25.81;47.46;100983.95;1773018;79;22134;-80
2022/06/27 08:11:21;;;;;;;5.70;2.00;;;;;;;25.83;47.43;100987.22;1748649;80;21025;-83
2022/06/27 08:13:47;;;;;;;6.50;2.45;;;;;;;25.83;47.38;100985.83;1732093;82;22142;-80
2022/06/27 08:16:14;;;;;;;7.53;3.50;;;;;;;25.83;47.37;100976.89;1722358;81;21110;-78
2022/06/27 08:18:45;;;;;;;6.83;2.85;;;;;;;25.84;47.31;100969.34;1755327;79;21518;-79
2022/06/27 08:21:11;;;;;;;9.28;3.37;;;;;;;25.87;47.28;100974.20;1803548;78;21044;-78
2022/06/27 08:23:38;;;;;;;7.33;3.20;;;;;;;25.87;47.23;100974.20;1785887;78;21076;-78
2022/06/27 08:26:07;;;;;;;7.90;3.80;;;;;;;25.88;47.23;100971.08;1801312;77;21145;-79
2022/06/27 08:28:37;;;;;;;7.15;3.08;;;;;;;25.89;47.22;100969.89;1806017;78;21040;-78
2022/06/27 08:31:05;;;;;;;5.47;2.70;;;;;;;25.89;47.21;100967.11;1808263;79;21785;-80
2022/06/27 08:33:32;;;;;;;4.55;2.42;;;;;;;25.91;47.22;100969.55;1790080;78;21024;-79
2022/06/27 08:35:59;;;;;;;4.53;2.10;;;;;;;25.92;47.23;100960.04;1805571;78;21036;-77
2022/06/27 08:38:25;;;;;;;3.50;2.27;;;;;;;25.93;47.21;100961.64;1812494;78;21045;-79
2022/06/27 08:40:55;;;;;;;5.37;2.27;;;;;;;25.93;47.23;100958.06;1812882;78;21079;-80
2022/06/27 08:43:22;;;;;;;4.60;2.60;;;;;;;25.93;47.22;100956.88;1796781;79;21168;-78
2022/06/27 08:45:50;;;;;;;5.28;2.47;;;;;;;25.95;47.19;100963.51;1798298;78;20991;-80
2022/06/27 08:48:16;;;;;;;4.08;2.45;;;;;;;25.95;47.15;100962.11;1799873;77;21079;-80
2022/06/27 08:50:44;;;;;;;5.00;2.70;;;;;;;25.95;47.11;100954.33;1764752;79;21107;-79
2022/06/27 08:53:12;;;;;;;4.12;3.10;;;;;;;25.98;47.05;100952.22;1797083;78;21081;-80
2022/06/27 08:55:45;;;;;;;4.72;2.70;;;;;;;25.98;47.03;100952.22;1800860;78;21060;-79
2022/06/27 08:58:12;;;;;;;9.30;2.98;;;;;;;25.98;47.05;100951.65;1761871;78;21100;-82
2022/06/27 09:00:41;;;;;;;4.08;3.02;;;;;;;25.99;47.01;100949.67;1794825;78;21615;-79
2022/06/27 09:03:08;;;;;;;6.83;3.77;;;;;;;25.98;46.91;100958.62;1810364;78;21107;-79
2022/06/27 09:05:35;;;;;;;9.08;3.83;;;;;;;25.97;46.92;100947.84;1779771;78;21064;-80
2022/06/27 09:08:04;;;;;;;5.33;3.02;;;;;;;25.97;47.03;100956.20;1775347;79;20846;-78
2022/06/27 09:10:44;;;;;;;4.85;2.75;;;;;;;25.98;46.88;100955.02;1794362;79;21045;-80
2022/06/27 09:13:10;;;;;;;5.20;2.30;;;;;;;25.99;46.79;100956.65;1805149;79;21044;-80
2022/06/27 09:16:01;;;;;;;3.45;2.10;;;;;;;25.97;46.66;100947.23;1795001;79;21582;-79
2022/06/27 09:18:33;;;;;;;5.47;2.20;;;;;;;25.98;46.56;100947.47;1766674;80;21127;-79
2022/06/27 09:21:03;;;;;;;3.60;2.30;;;;;;;25.99;46.38;100937.95;1764582;81;21100;-79
2022/06/27 09:23:49;;;;;;;4.47;2.67;;;;;;;26.00;46.22;100940.97;1775018;79;21068;-78
2022/06/27 09:26:34;;;;;;;3.65;2.42;;;;;;;26.01;46.18;100939.81;1808762;78;20992;-78
2022/06/27 09:29:14;;;;;;;7.80;3.52;;;;;;;26.01;46.17;100939.81;1807664;78;21125;-78
2022/06/27 09:31:50;;;;;;;6.80;3.58;;;;;;;26.01;46.23;100939.81;1799360;79;21237;-82
2022/06/27 09:34:23;;;;;;;8.08;3.10;;;;;;;26.03;46.30;100938.05;1770255;79;21122;-78
2022/06/27 09:36:56;;;;;;;4.50;2.80;;;;;;;26.04;46.25;100934.92;1795947;79;21107;-81
2022/06/27 09:39:31;;;;;;;4.30;2.47;;;;;;;26.05;46.27;100922.61;1793840;78;21065;-82
2022/06/27 09:42:04;;;;;;;3.22;2.50;;;;;;;26.06;46.18;100928.40;1795885;78;21178;-78
2022/06/27 09:44:35;;;;;;;3.83;2.40;;;;;;;26.06;46.09;100917.83;1763825;81;21121;-80
2022/06/27 09:47:26;;;;;;;3.50;2.50;;;;;;;26.08;46.05;100918.30;1781798;77;21676;-79
2022/06/27 09:49:56;;;;;;;5.62;2.25;;;;;;;26.09;46.00;100922.72;1765315;79;21644;-82
2022/06/27 09:52:23;;;;;;;4.65;2.95;;;;;;;26.10;45.90;100926.53;1791057;79;21072;-78
2022/06/27 09:54:52;;;;;;;4.08;2.65;;;;;;;26.10;45.94;100920.95;1771906;79;20985;-78
2022/06/27 09:57:19;;;;;;;3.83;2.90;;;;;;;26.11;45.80;100922.58;1789038;79;21068;-78
2022/06/27 09:59:47;;;;;;;3.27;2.12;;;;;;;26.13;45.75;100926.42;1788702;78;21263;-79
2022/06/27 10:02:16;;;;;;;4.60;2.05;;;;;;;26.14;45.63;100923.27;1793371;79;21115;-79
2022/06/27 10:04:43;;;;;;;3.95;2.10;;;;;;;26.16;45.48;100919.55;1804809;78;21522;-78
2022/06/27 10:07:10;;;;;;;3.77;2.00;;;;;;;26.16;45.33;100920.95;1792358;79;21017;-79
2022/06/27 10:09:37;;;;;;;2.50;1.80;;;;;;;26.19;45.21;100918.02;1789871;78;21032;-81
2022/06/27 10:12:36;;;;;;;4.60;1.90;;;;;;;26.19;44.98;100924.41;1794585;78;21158;-79
2022/06/27 10:15:17;;;;;;;3.33;1.57;;;;;;;26.20;44.82;100923.29;1792106;78;22149;-78
2022/06/27 10:17:50;;;;;;;4.17;1.90;;;;;;;26.22;44.74;100924.34;1794002;78;22262;-78
2022/06/27 10:20:22;;;;;;;2.90;1.90;;;;;;;26.21;44.56;100917.95;1787720;78;21344;-80
2022/06/27 10:23:17;;;;;;;3.37;1.85;;;;;;;26.22;44.42;100918.77;1783826;78;21107;-78
2022/06/27 10:25:45;;;;;;;3.45;1.67;;;;;;;26.22;44.34;100914.00;1778655;78;20992;-83
2022/06/27 10:28:18;;;;;;;3.98;1.72;;;;;;;26.24;44.25;100915.02;1795819;78;20975;-78
2022/06/27 10:30:57;;;;;;;5.83;2.00;;;;;;;26.25;44.26;100916.08;1806352;79;21000;-82
2022/06/27 10:33:29;;;;;;;4.33;2.17;;;;;;;26.26;44.55;100920.50;1783576;80;21064;-79
2022/06/27 10:36:17;;;;;;;3.75;2.00;;;;;;;26.26;44.55;100920.50;1785884;79;21373;-78
2022/06/27 10:38:46;;;;;;;2.15;1.67;;;;;;;26.26;44.11;100905.16;1782580;79;22001;-79
2022/06/27 10:41:24;;;;;;;3.75;2.05;;;;;;;26.25;44.10;100902.13;1779908;79;21035;-80
2022/06/27 10:43:53;;;;;;;4.15;1.80;;;;;;;26.25;44.10;100900.73;1781695;80;21071;-78
2022/06/27 10:46:25;;;;;;;4.10;1.72;;;;;;;26.24;43.97;100896.31;1785678;78;20980;-78
2022/06/27 10:48:57;;;;;;;2.80;1.65;;;;;;;26.25;43.83;100898.53;1785602;79;21011;-78
2022/06/27 10:51:28;;;;;;;4.65;2.20;;;;;;;26.25;43.75;100902.13;1785154;79;21562;-79
2022/06/27 10:54:10;;;;;;;5.45;2.30;;;;;;;26.23;43.87;100900.27;1782346;79;21064;-78
2022/06/27 10:56:40;;;;;;;4.60;2.50;;;;;;;26.24;44.02;100887.14;1772419;79;21080;-80
2022/06/27 10:59:18;;;;;;;2.92;2.40;;;;;;;26.23;44.17;100885.50;1783034;79;21491;-80
2022/06/27 11:01:58;;;;;;;4.83;1.82;;;;;;;26.22;44.23;100874.95;1783152;79;21421;-79
2022/06/27 11:04:31;;;;;;;3.17;2.00;;;;;;;26.22;44.12;100873.56;1777815;79;21680;-78
2022/06/27 11:07:05;;;;;;;4.33;1.72;;;;;;;26.22;43.98;100872.17;1772543;79;21011;-80
2022/06/27 11:09:45;;;;;;;3.52;2.40;;;;;;;26.21;43.88;100864.96;1801883;79;21286;-80
2022/06/27 11:12:14;;;;;;;2.45;1.72;;;;;;;26.21;43.78;100873.33;1804074;79;21090;-78
2022/06/27 11:14:53;;;;;;;4.05;1.80;;;;;;;26.21;43.67;100874.72;1788958;78;21037;-79
2022/06/27 11:17:40;;;;;;;3.92;2.08;;;;;;;26.22;43.52;100864.38;1800205;79;21541;-80
2022/06/27 11:20:17;;;;;;;4.55;1.90;;;;;;;26.23;43.41;100865.98;1800354;79;20972;-78
2022/06/27 11:22:47;;;;;;;4.78;1.80;;;;;;;26.24;43.35;100866.22;1800520;79;21063;-80
2022/06/27 11:25:13;;;;;;;4.10;1.75;;;;;;;26.26;43.20;100869.48;1808903;79;21027;-79
2022/06/27 11:33:24;;;;;;;4.00;1.70;;;;;;;26.32;42.88;100859.67;1782477;79;20997;-79
2022/06/27 11:35:50;;;;;;;2.47;1.87;;;;;;;26.33;42.75;100855.73;1789417;79;21055;-78
2022/06/27 11:38:32;;;;;;;4.12;1.67;;;;;;;26.36;42.68;100851.63;1806734;79;21252;-80
2022/06/27 11:41:01;;;;;;;2.40;1.50;;;;;;;26.40;42.59;100852.31;1804366;77;21040;-79